ADDS METAR Data INFO
IDs: Format: Raw Decoded Include TAF

Data at: 2105 UTC 19 Jul 2018

KEHA 192055Z AUTO 05031G41KT 1 1/2SM +TSRA BKN007 BKN010 BKN015 26/19 A2997 RMK AO2 LTG DSNT ALQDS P0024 60024 T02600193
KEHA 192035Z AUTO 14005KT 10SM TS CLR 36/16 A2991 RMK AO2 LTG DSNT ALQDS T03640161
KEHA 192015Z AUTO 18007KT 10SM CLR 37/18 A2992 RMK AO2 LTG DSNT NW THRU E T03710182
KEHA 191955Z AUTO 16008KT 10SM CLR 40/16 A2992 RMK AO2 T03950162
KEHA 191935Z AUTO 18009KT 10SM CLR 40/16 A2994 RMK AO2 T04020161
KEHA 191915Z AUTO 17005KT 10SM CLR 39/18 A2996 RMK AO2 T03940181
KEHA 191855Z AUTO 17007KT 10SM CLR 39/18 A2996 RMK AO2 T03890184
KEHA 191835Z AUTO 19009KT 10SM CLR 39/18 A2997 RMK AO2 T03850181
KEHA 191815Z AUTO 19009KT 10SM CLR 39/19 A2998 RMK AO2 T03850186
KEHA 191755Z AUTO 20008KT 10SM CLR 38/15 A2998 RMK AO2 T03800150 10380 20207
KEHA 191735Z AUTO 20009KT 10SM CLR 37/19 A2998 RMK AO2 T03710185
KEHA 191715Z AUTO 20008KT 10SM CLR 35/19 A2999 RMK AO2 T03510193
KEHA 191655Z AUTO 19007KT 10SM CLR 35/19 A2999 RMK AO2 T03540186
KEHA 191635Z AUTO 18005KT 10SM CLR 35/21 A2999 RMK AO2 T03500209
KEHA 191615Z AUTO 26004KT 10SM CLR 34/20 A3000 RMK AO2 LTG DSNT W T03400204
KEHA 191555Z AUTO 20004KT 10SM CLR 32/22 A3000 RMK AO2 T03210223
KEHA 191535Z AUTO 20005KT 10SM CLR 30/23 A3000 RMK AO2 T03030226
KEHA 191515Z AUTO 19005KT 10SM CLR 28/22 A3000 RMK AO2 T02790222
KEHA 191455Z AUTO 00000KT 10SM CLR 27/22 A3000 RMK AO2 T02650215
KEHA 191435Z AUTO 23004KT 10SM CLR 26/22 A3000 RMK AO2 T02600215
KEHA 191415Z AUTO 25004KT 10SM CLR 26/21 A3001 RMK AO2 T02600211
KEHA 191355Z AUTO 23004KT 10SM CLR 27/21 A3000 RMK AO2 T02710211
KEHA 191335Z AUTO 21004KT 10SM CLR 26/21 A3000 RMK AO2 T02610212
KEHA 191315Z AUTO 22005KT 10SM CLR 25/21 A3000 RMK AO2 T02490210
KEHA 191255Z AUTO 19004KT 10SM CLR 24/21 A3000 RMK AO2 LTG DSNT SW T02400210
KEHA 191235Z AUTO 00000KT 10SM CLR 22/21 A3000 RMK AO2 T02230207
KEHA 191215Z AUTO 00000KT 7SM CLR 21/20 A3000 RMK AO2 T02070196
KEHA 191155Z AUTO 00000KT 10SM CLR 22/20 A3000 RMK AO2 T02160201 10245 20210
KEHA 191135Z AUTO 25004KT 10SM CLR 22/20 A3000 RMK AO2 T02160201
KEHA 191115Z AUTO 00000KT 10SM CLR 22/20 A3000 RMK AO2 T02160201
KEHA 191055Z AUTO 00000KT 10SM CLR 21/20 A3000 RMK AO2 T02110200
KEHA 191035Z AUTO 18006KT 10SM CLR 22/20 A2999 RMK AO2 T02150202
KEHA 191015Z AUTO 17008KT 10SM CLR 22/20 A2999 RMK AO2 T02170202
KEHA 190955Z AUTO 16008KT 10SM CLR 22/20 A2999 RMK AO2 T02190202
KEHA 190935Z AUTO 16010KT 10SM CLR 23/21 A2998 RMK AO2 T02250205
KEHA 190915Z AUTO 17009KT 10SM CLR 22/21 A2999 RMK AO2 T02220205
KEHA 190855Z AUTO 17009KT 10SM CLR 22/21 A3000 RMK AO2 T02230206
KEHA 190835Z AUTO 17008KT 10SM CLR 22/21 A3000 RMK AO2 T02220208
KEHA 190815Z AUTO 18007KT 10SM CLR 22/21 A3000 RMK AO2 T02220212
KEHA 190755Z AUTO 18007KT 10SM CLR 23/21 A3000 RMK AO2 T02250213
KEHA 190735Z AUTO 17008KT 10SM CLR 23/22 A3000 RMK AO2 T02300215
KEHA 190715Z AUTO 17008KT 10SM CLR 23/22 A3001 RMK AO2 T02320216
KEHA 190655Z AUTO 16008KT 10SM CLR 24/22 A3001 RMK AO2 T02370218
KEHA 190635Z AUTO 15008KT 10SM CLR 24/22 A3001 RMK AO2 T02420218
KEHA 190615Z AUTO 15008KT 10SM CLR 25/22 A3002 RMK AO2 T02450216
KEHA 190555Z AUTO 15008KT 10SM CLR 25/22 A3002 RMK AO2 T02450215 10352 20245 403550203
KEHA 190535Z AUTO 14007KT 10SM CLR 25/22 A3003 RMK AO2 T02480215
KEHA 190515Z AUTO 14008KT 10SM CLR 25/21 A3003 RMK AO2 T02520213
KEHA 190455Z AUTO 13008KT 10SM CLR 26/21 A3003 RMK AO2 T02550212
KEHA 190435Z AUTO 14008KT 10SM CLR 25/21 A3003 RMK AO2 T02540210
KEHA 190415Z AUTO 14007KT 10SM CLR 26/21 A3003 RMK AO2 T02560207
KEHA 190355Z AUTO 13008KT 10SM CLR 26/20 A3003 RMK AO2 T02610202
KEHA 190335Z AUTO 13007KT 10SM CLR 27/20 A3002 RMK AO2 T02680195
KEHA 190315Z AUTO 12007KT 10SM CLR 28/20 A3001 RMK AO2 T02770195
KEHA 190255Z AUTO 12005KT 10SM CLR 28/19 A3000 RMK AO2 T02770190
KEHA 190235Z AUTO 12004KT 10SM CLR 28/19 A3000 RMK AO2 T02790186
KEHA 190215Z AUTO 12004KT 10SM CLR 29/18 A3000 RMK AO2 T02940183
KEHA 190155Z AUTO 10006KT 10SM CLR 31/18 A3000 RMK AO2 T03060183
KEHA 190135Z AUTO 12006KT 10SM CLR 32/18 A3000 RMK AO2 T03220184
KEHA 190115Z AUTO 12007KT 10SM CLR 33/19 A3000 RMK AO2 T03320185
KEHA 190055Z AUTO 12007KT 10SM CLR 34/19 A3000 RMK AO2 T03390185
KEHA 190035Z AUTO 12006KT 10SM CLR 35/19 A3000 RMK AO2 T03450188
KEHA 190015Z AUTO 13006KT 10SM CLR 35/19 A3000 RMK AO2 T03490189
KEHA 182355Z AUTO 08007KT 10SM CLR 35/19 A3000 RMK AO2 T03530190 10355 20318
KEHA 182335Z AUTO 09006KT 10SM CLR 35/19 A3000 RMK AO2 T03510189
KEHA 182315Z AUTO 16005KT 10SM CLR 35/19 A3001 RMK AO2 T03530189
KEHA 182255Z AUTO 11003KT 10SM CLR 35/19 A3001 RMK AO2 T03490190
KEHA 182235Z AUTO 15004KT 10SM CLR 35/19 A3001 RMK AO2 T03520194
KEHA 182215Z AUTO 18003KT 10SM CLR 35/19 A3001 RMK AO2 T03490194
KEHA 182155Z AUTO 17005KT 10SM CLR 35/19 A3002 RMK AO2 T03480190
KEHA 182135Z AUTO 00000KT 10SM CLR 35/19 A3002 RMK AO2 T03490191
KEHA 182115Z AUTO 20005KT 10SM CLR 35/19 A3003 RMK AO2 T03500193
KEHA 182055Z AUTO 15006KT 10SM CLR 35/20 A3003 RMK AO2 T03470196
KEHA 182035Z AUTO 00000KT 10SM CLR 34/20 A3003 RMK AO2 T03440200
KEHA 182015Z AUTO 12010KT 10SM CLR 34/21 A3003 RMK AO2 T03430206
KEHA 181955Z AUTO 15005KT 10SM CLR 34/20 A3005 RMK AO2 T03430201
KEHA 181935Z AUTO 17005G14KT 10SM CLR 34/19 A3005 RMK AO2 T03400194
KEHA 181915Z AUTO 16008KT 10SM CLR 34/20 A3005 RMK AO2 T03400201
KEHA 181855Z AUTO 18009KT 10SM CLR 33/20 A3005 RMK AO2 T03320202
KEHA 181835Z AUTO 18006KT 10SM CLR 33/20 A3006 RMK AO2 T03270198
KEHA 181815Z AUTO 06006KT 10SM CLR 33/19 A3006 RMK AO2 T03250190
KEHA 181755Z AUTO 00000KT 10SM CLR 32/19 A3007 RMK AO2 T03170188 10321 20207
KEHA 181735Z AUTO 00000KT 10SM CLR 32/19 A3008 RMK AO2 T03150188
KEHA 181715Z AUTO 13003KT 10SM CLR 31/19 A3008 RMK AO2 T03130186
KEHA 181655Z AUTO 10003KT 10SM CLR 30/19 A3009 RMK AO2 T03040194
KEHA 181635Z AUTO 15003KT 10SM CLR 30/21 A3008 RMK AO2 T02990205
KEHA 181615Z AUTO 18005KT 10SM CLR 29/21 A3008 RMK AO2 T02940213
KEHA 181555Z AUTO 23003KT 10SM CLR 29/20 A3008 RMK AO2 T02850204
KEHA 181535Z AUTO 00000KT 10SM CLR 28/21 A3008 RMK AO2 T02780209
KEHA 181515Z AUTO 27004KT 10SM CLR 27/21 A3009 RMK AO2 T02730212
KEHA 181455Z AUTO 27005KT 10SM CLR 27/21 A3009 RMK AO2 T02660211
KEHA 181435Z AUTO 28005KT 10SM CLR 26/21 A3010 RMK AO2 T02600209
KEHA 181415Z AUTO 26006KT 10SM CLR 26/21 A3010 RMK AO2 T02550207
KEHA 181355Z AUTO 26005KT 10SM CLR 25/21 A3010 RMK AO2 T02470208
KEHA 181335Z AUTO 27006KT 10SM CLR 24/21 A3010 RMK AO2 T02410206
KEHA 181315Z AUTO 27006KT 10SM CLR 23/21 A3010 RMK AO2 T02320205
KEHA 181255Z AUTO 27007KT 10SM CLR 22/20 A3010 RMK AO2 T02240204
KEHA 181235Z AUTO 26007KT 10SM CLR 22/20 A3009 RMK AO2 T02150202
KEHA 181215Z AUTO 26008KT 10SM CLR 21/20 A3009 RMK AO2 T02100201
KEHA 181155Z AUTO 26006KT 10SM CLR 21/20 A3009 RMK AO2 70011 T02070201 10231 20203
KEHA 181135Z AUTO 24005KT 10SM CLR 21/20 A3009 RMK AO2 T02070202
KEHA 181115Z AUTO 22007KT 7SM CLR 20/20 A3008 RMK AO2 T02040201
KEHA 181055Z AUTO 22007KT 7SM CLR 21/20 A3008 RMK AO2 T02050203
KEHA 181035Z AUTO 21008KT 7SM CLR 21/20 A3008 RMK AO2 T02050203
KEHA 181015Z AUTO 21007KT 5SM BR CLR 21/21 A3007 RMK AO2 T02060205
KEHA 180955Z AUTO 20004KT 4SM BR CLR 21/21 A3008 RMK AO2 T02060205
KEHA 180935Z AUTO 21006KT 5SM BR CLR 21/20 A3008 RMK AO2 T02050202
KEHA 180915Z AUTO 19004KT 7SM CLR 21/21 A3009 RMK AO2 T02100205